Time;durP1;ratioP1;P1;durP2;ratioP2;P2;SDS_P1;SDS_P2;PMS_P1;PMS_P2;Temp;Humidity;BMP_temperature;BMP_pressure;BME280_temperature;BME280_humidity;BME280_pressure;Samples;Min_cycle;Max_cycle;Signal;HPM_P1;HPM_P2
2022/03/03 00:01:13;;;;;;;3.77;3.10;;;;;;;5.21;72.47;96346.75;5010650;28;20226;-83
2022/03/03 00:03:47;;;;;;;4.17;2.73;;;;;;;5.21;72.71;96352.94;5019951;28;20237;-83
2022/03/03 00:06:22;;;;;;;6.30;3.20;;;;;;;5.21;72.33;96350.25;5015227;28;20199;-83
2022/03/03 00:09:06;;;;;;;5.30;3.20;;;;;;;5.22;71.91;96353.75;5017615;28;20218;-83
2022/03/03 00:11:36;;;;;;;4.90;3.20;;;;;;;5.15;71.54;96350.22;5025253;27;20221;-83
2022/03/03 00:14:04;;;;;;;5.80;3.10;;;;;;;5.07;71.88;96353.03;5011299;28;20211;-81
2022/03/03 00:16:40;;;;;;;6.63;3.03;;;;;;;5.06;71.58;96354.91;5021416;28;20234;-83
2022/03/03 00:19:10;;;;;;;4.90;3.20;;;;;;;5.09;72.72;96362.53;5020749;28;20242;-82
2022/03/03 00:21:38;;;;;;;6.30;3.50;;;;;;;5.09;74.57;96351.84;5022121;28;20194;-83
2022/03/03 00:24:06;;;;;;;4.83;3.57;;;;;;;5.08;75.13;96355.53;5014728;28;20262;-82
2022/03/03 00:26:47;;;;;;;6.50;3.33;;;;;;;5.06;74.87;96351.38;5018551;28;20214;-82
2022/03/03 00:29:19;;;;;;;5.73;3.33;;;;;;;5.08;75.24;96350.19;5021948;28;20237;-82
2022/03/03 00:31:46;;;;;;;6.00;3.70;;;;;;;5.00;74.98;96346.81;5014652;28;20211;-82
2022/03/03 00:34:14;;;;;;;5.33;3.87;;;;;;;4.99;75.11;96351.34;5021428;28;20205;-82
2022/03/03 00:36:50;;;;;;;5.10;3.40;;;;;;;4.94;75.11;96351.91;5025309;27;20217;-83
2022/03/03 00:39:20;;;;;;;3.63;3.00;;;;;;;4.90;75.84;96364.06;5009965;28;20310;-82
2022/03/03 00:41:49;;;;;;;4.93;3.27;;;;;;;4.86;76.82;96351.25;5017311;27;20194;-82
2022/03/03 00:44:17;;;;;;;4.57;3.03;;;;;;;4.83;76.79;96363.19;5017120;28;20210;-82
2022/03/03 00:46:44;;;;;;;4.23;2.80;;;;;;;4.78;78.09;96368.25;5011154;28;20263;-83
2022/03/03 00:49:11;;;;;;;6.07;2.70;;;;;;;4.77;77.98;96363.09;5017797;28;20336;-82
2022/03/03 00:51:38;;;;;;;3.43;2.70;;;;;;;4.79;78.06;96363.75;5014526;28;20297;-82
2022/03/03 00:54:06;;;;;;;5.97;3.07;;;;;;;4.70;77.76;96362.22;5012184;28;20301;-82
2022/03/03 00:56:34;;;;;;;4.67;2.60;;;;;;;4.65;78.35;96353.97;5021645;28;20202;-82
2022/03/03 00:59:01;;;;;;;4.03;2.50;;;;;;;4.61;79.10;96366.06;5016353;28;20218;-82
2022/03/03 01:01:30;;;;;;;3.73;2.50;;;;;;;4.61;79.83;96374.06;5010363;28;20294;-82
2022/03/03 01:04:05;;;;;;;5.10;2.77;;;;;;;4.53;79.82;96356.31;5014916;28;20305;-83
2022/03/03 01:06:32;;;;;;;3.20;2.43;;;;;;;4.61;79.05;96374.91;5011323;28;20207;-83
2022/03/03 01:09:02;;;;;;;5.97;2.40;;;;;;;4.57;77.28;96358.44;5015891;28;20220;-82
2022/03/03 01:11:35;;;;;;;4.00;2.20;;;;;;;4.52;75.54;96365.34;5014758;28;20236;-82
2022/03/03 01:14:05;;;;;;;4.27;2.30;;;;;;;4.46;75.84;96358.94;5005464;28;20221;-83
2022/03/03 01:16:32;;;;;;;4.23;2.27;;;;;;;4.42;75.18;96346.97;5022213;27;20213;-82
2022/03/03 01:19:00;;;;;;;3.03;2.30;;;;;;;4.41;75.57;96350.69;5037270;27;20266;-82
2022/03/03 01:21:29;;;;;;;4.53;2.30;;;;;;;4.43;76.24;96345.13;5034599;28;20233;-82
2022/03/03 01:24:09;;;;;;;3.13;2.17;;;;;;;4.47;75.59;96351.75;5010885;28;20225;-83
2022/03/03 01:26:38;;;;;;;3.17;2.40;;;;;;;4.50;74.80;96352.22;5027105;28;20274;-84
2022/03/03 01:29:05;;;;;;;4.97;2.27;;;;;;;4.50;74.42;96357.56;5010064;28;20236;-83
2022/03/03 01:31:32;;;;;;;3.03;2.70;;;;;;;4.56;75.95;96359.44;5015512;28;20229;-82
2022/03/03 01:33:59;;;;;;;4.57;2.73;;;;;;;4.42;78.05;96348.84;5016451;28;20215;-82
2022/03/03 01:36:26;;;;;;;5.23;2.50;;;;;;;4.43;78.67;96345.94;5020126;28;20309;-83
2022/03/03 01:38:53;;;;;;;3.50;2.33;;;;;;;4.36;78.78;96344.25;5008548;28;20298;-82
2022/03/03 01:41:21;;;;;;;4.23;2.70;;;;;;;4.32;79.49;96349.16;5030219;27;20248;-82
2022/03/03 01:43:54;;;;;;;5.10;3.00;;;;;;;4.21;81.01;96346.97;5016183;28;20214;-83
2022/03/03 01:46:21;;;;;;;4.63;3.07;;;;;;;4.17;81.26;96340.34;5030416;28;20203;-82
2022/03/03 01:48:48;;;;;;;4.07;2.63;;;;;;;4.21;81.97;96336.28;5014886;28;20194;-82
2022/03/03 01:51:15;;;;;;;3.57;2.73;;;;;;;4.22;81.96;96329.94;5011744;28;20211;-82
2022/03/03 01:53:42;;;;;;;4.30;2.87;;;;;;;4.21;80.77;96332.78;5013707;28;20217;-82
2022/03/03 01:56:10;;;;;;;4.23;2.63;;;;;;;4.16;81.56;96325.38;5020840;28;20301;-82
2022/03/03 01:58:38;;;;;;;4.93;3.10;;;;;;;4.19;82.04;96332.97;5017322;28;20195;-83
2022/03/03 02:01:07;;;;;;;3.47;2.47;;;;;;;4.20;82.27;96321.28;5015132;28;20223;-82
2022/03/03 02:03:37;;;;;;;5.30;2.90;;;;;;;4.27;81.95;96330.19;5028847;27;20227;-82
2022/03/03 02:06:06;;;;;;;4.63;2.60;;;;;;;4.22;81.69;96308.56;5010892;28;20226;-83
2022/03/03 02:08:42;;;;;;;4.60;3.07;;;;;;;4.26;81.26;96319.66;5020603;28;20216;-81
2022/03/03 02:11:17;;;;;;;4.77;2.80;;;;;;;4.22;81.75;96319.25;5009856;28;20229;-83
2022/03/03 02:13:53;;;;;;;4.57;2.60;;;;;;;4.21;81.15;96308.75;5011803;28;20218;-82
2022/03/03 02:16:22;;;;;;;2.70;2.30;;;;;;;4.19;79.35;96307.09;5015532;28;20203;-83
2022/03/03 02:18:49;;;;;;;3.53;2.10;;;;;;;4.21;76.79;96300.72;5013617;28;20227;-82
2022/03/03 02:21:18;;;;;;;3.27;2.43;;;;;;;4.21;76.73;96296.22;5021971;27;20225;-82
2022/03/03 02:23:51;;;;;;;4.63;2.50;;;;;;;4.16;76.69;96302.13;5017060;27;20227;-82
2022/03/03 02:26:27;;;;;;;5.57;2.50;;;;;;;4.13;78.21;96302.50;5016571;28;20232;-82
2022/03/03 02:28:55;;;;;;;2.70;2.40;;;;;;;4.12;77.66;96300.03;5016488;28;20206;-83
2022/03/03 02:31:22;;;;;;;4.70;2.27;;;;;;;4.06;78.32;96295.47;5018206;28;20210;-82
2022/03/03 02:33:49;;;;;;;2.50;2.03;;;;;;;4.05;76.50;96291.94;5016230;28;20203;-82
2022/03/03 02:36:22;;;;;;;2.40;2.00;;;;;;;4.03;75.61;96295.81;5017675;28;20294;-82
2022/03/03 02:38:52;;;;;;;3.77;2.10;;;;;;;4.04;76.38;96292.97;5016294;27;20258;-82
2022/03/03 02:41:20;;;;;;;4.13;1.87;;;;;;;4.03;76.49;96290.47;5016689;28;20215;-82
2022/03/03 02:43:48;;;;;;;3.27;2.30;;;;;;;4.02;77.33;96292.31;5014524;28;20279;-82
2022/03/03 02:46:15;;;;;;;4.67;2.43;;;;;;;4.00;77.23;96293.53;5020954;27;20210;-83
2022/03/03 02:48:43;;;;;;;3.20;2.00;;;;;;;3.94;78.19;96283.59;5029506;28;20271;-82
2022/03/03 02:51:16;;;;;;;2.43;1.97;;;;;;;3.96;77.53;96290.44;5017040;28;20295;-82
2022/03/03 02:53:46;;;;;;;4.43;2.10;;;;;;;3.91;78.44;96281.34;5024815;28;20202;-82
2022/03/03 02:56:13;;;;;;;2.87;2.10;;;;;;;3.91;77.37;96290.19;5010321;28;20214;-82
2022/03/03 02:58:40;;;;;;;3.33;2.00;;;;;;;3.86;77.01;96289.91;5018655;28;20238;-82
2022/03/03 03:01:13;;;;;;;4.90;2.40;;;;;;;3.83;77.36;96286.81;5023496;28;20222;-82
2022/03/03 03:03:46;;;;;;;2.50;2.13;;;;;;;3.79;77.05;96287.16;5019069;28;20210;-82
2022/03/03 03:06:14;;;;;;;2.57;2.00;;;;;;;3.81;77.84;96289.66;5013217;28;20233;-83
2022/03/03 03:08:42;;;;;;;2.47;2.00;;;;;;;3.79;78.00;96284.50;5011791;28;20211;-82
2022/03/03 03:11:15;;;;;;;4.43;2.13;;;;;;;3.74;76.93;96270.06;5017711;28;20199;-82
2022/03/03 03:13:57;;;;;;;3.03;2.10;;;;;;;3.78;77.83;96277.50;5018931;28;20206;-82
2022/03/03 03:16:32;;;;;;;3.40;2.20;;;;;;;3.67;77.82;96267.31;5019776;28;20202;-82
2022/03/03 03:19:04;;;;;;;4.40;2.03;;;;;;;3.60;77.44;96269.09;5014065;28;20215;-82
2022/03/03 03:21:44;;;;;;;3.23;2.07;;;;;;;3.54;77.57;96261.84;5016983;28;20384;-82
2022/03/03 03:24:20;;;;;;;2.37;1.80;;;;;;;3.58;78.73;96265.78;5017308;28;20230;-82
2022/03/03 03:26:58;;;;;;;4.47;2.17;;;;;;;3.59;79.14;96263.94;5027252;27;20229;-83
2022/03/03 03:29:33;;;;;;;3.60;2.23;;;;;;;3.57;79.59;96264.16;5017900;28;20241;-83
2022/03/03 03:32:01;;;;;;;3.20;2.23;;;;;;;3.59;80.02;96270.09;5030832;28;20221;-82
2022/03/03 03:34:28;;;;;;;3.33;2.20;;;;;;;3.57;79.79;96274.00;5012913;28;20206;-82
2022/03/03 03:36:55;;;;;;;2.10;1.77;;;;;;;3.50;79.43;96265.88;5016631;28;20249;-82
2022/03/03 03:39:22;;;;;;;2.87;2.23;;;;;;;3.38;80.03;96268.25;5021744;28;20201;-82
2022/03/03 03:41:49;;;;;;;4.57;2.10;;;;;;;3.34;80.17;96272.28;5012724;28;20241;-83
2022/03/03 03:44:25;;;;;;;3.27;2.17;;;;;;;3.31;80.11;96264.66;5014333;28;20230;-82
2022/03/03 03:47:06;;;;;;;2.33;1.93;;;;;;;3.29;81.02;96271.19;5019461;28;20228;-82
2022/03/03 03:49:48;;;;;;;4.80;2.53;;;;;;;3.19;82.14;96262.66;5008899;28;20211;-82
2022/03/03 03:52:15;;;;;;;7.50;2.43;;;;;;;3.20;82.83;96269.66;5029368;27;20223;-83
2022/03/03 03:54:45;;;;;;;5.70;2.33;;;;;;;3.13;82.60;96256.22;5032016;27;20208;-82
2022/03/03 03:57:15;;;;;;;3.07;2.20;;;;;;;3.08;82.22;96252.44;5016422;28;20221;-83
2022/03/03 03:59:43;;;;;;;4.13;2.27;;;;;;;3.06;82.46;96254.50;5022635;28;20203;-82
2022/03/03 04:02:13;;;;;;;3.33;2.30;;;;;;;3.07;82.99;96253.47;5015117;28;20212;-82
2022/03/03 04:04:46;;;;;;;3.53;2.20;;;;;;;3.01;82.00;96252.38;5009988;28;20239;-82
2022/03/03 04:07:13;;;;;;;5.57;2.23;;;;;;;3.04;82.04;96252.84;5031392;28;20202;-82
2022/03/03 04:09:40;;;;;;;3.87;2.23;;;;;;;3.00;81.74;96250.72;5011807;28;20209;-81
2022/03/03 04:12:08;;;;;;;3.07;2.40;;;;;;;3.03;83.09;96258.34;5018417;27;20218;-82
2022/03/03 04:14:36;;;;;;;5.33;2.40;;;;;;;3.02;82.69;96267.38;5026549;27;20433;-82
2022/03/03 04:17:07;;;;;;;3.23;2.33;;;;;;;2.93;82.21;96258.63;5011687;28;20210;-82
2022/03/03 04:19:34;;;;;;;4.47;2.90;;;;;;;2.86;82.99;96263.06;5021087;28;20210;-82
2022/03/03 04:22:01;;;;;;;2.67;2.17;;;;;;;2.81;83.33;96269.94;5016364;28;20238;-82
2022/03/03 04:24:42;;;;;;;7.87;2.60;;;;;;;2.69;84.13;96264.25;5012229;28;20230;-82
2022/03/03 04:27:09;;;;;;;3.67;2.10;;;;;;;2.73;84.83;96276.19;5013897;28;20214;-82
2022/03/03 04:29:42;;;;;;;4.20;2.40;;;;;;;2.76;84.48;96272.34;5016961;28;20209;-82
2022/03/03 04:32:11;;;;;;;2.93;2.13;;;;;;;2.74;83.98;96267.19;5025766;27;20300;-82
2022/03/03 04:34:38;;;;;;;3.00;2.13;;;;;;;2.72;83.30;96271.88;5016944;28;20244;-83
2022/03/03 04:37:09;;;;;;;4.27;2.30;;;;;;;2.64;84.23;96267.44;5023946;28;20238;-82
2022/03/03 04:39:47;;;;;;;5.50;2.30;;;;;;;2.53;85.96;96269.75;5016908;28;20217;-82
2022/03/03 04:42:17;;;;;;;3.00;2.20;;;;;;;2.47;86.03;96268.63;5020731;28;20205;-83
2022/03/03 04:44:44;;;;;;;4.10;2.10;;;;;;;2.43;85.81;96271.84;5017781;28;20221;-81
2022/03/03 04:47:18;;;;;;;5.23;2.50;;;;;;;2.36;86.29;96261.09;5016574;28;20202;-82
2022/03/03 04:49:53;;;;;;;8.50;2.20;;;;;;;2.31;87.30;96267.94;5019471;28;20205;-82
2022/03/03 04:52:22;;;;;;;4.50;2.70;;;;;;;2.32;88.35;96266.94;5015066;28;20198;-82
2022/03/03 04:54:57;;;;;;;3.83;2.87;;;;;;;2.33;88.03;96274.75;5031518;28;20224;-82
2022/03/03 04:57:25;;;;;;;5.43;2.87;;;;;;;2.27;87.78;96271.00;5023184;27;20211;-82
2022/03/03 04:59:52;;;;;;;4.10;2.80;;;;;;;2.27;89.15;96271.00;5015570;28;20267;-82
2022/03/03 05:02:24;;;;;;;4.73;3.87;;;;;;;2.30;87.05;96271.66;5014953;28;20261;-82
2022/03/03 05:04:54;;;;;;;5.10;3.73;;;;;;;2.25;87.22;96262.34;5012369;28;20300;-82
2022/03/03 05:07:21;;;;;;;4.37;3.60;;;;;;;2.16;87.21;96260.78;5022626;28;20241;-82
2022/03/03 05:09:50;;;;;;;6.50;3.80;;;;;;;2.14;87.52;96254.78;5014770;28;20211;-82
2022/03/03 05:12:20;;;;;;;4.30;3.30;;;;;;;2.17;87.57;96259.75;5011997;28;20316;-83
2022/03/03 05:14:47;;;;;;;5.17;3.07;;;;;;;2.20;88.26;96259.41;5021555;28;20263;-82
2022/03/03 05:17:17;;;;;;;8.00;2.70;;;;;;;2.11;89.09;96257.84;5016957;28;20206;-83
2022/03/03 05:20:06;;;;;;;3.70;2.53;;;;;;;2.11;90.25;96260.50;5014684;28;20206;-82
2022/03/03 05:22:42;;;;;;;5.63;2.93;;;;;;;2.04;89.66;96253.41;5027436;28;20234;-82
2022/03/03 05:25:12;;;;;;;5.30;2.53;;;;;;;2.04;89.55;96264.84;5022396;27;20213;-82
2022/03/03 05:27:43;;;;;;;5.90;2.80;;;;;;;1.99;91.24;96258.41;5012494;28;20220;-82
2022/03/03 05:30:11;;;;;;;7.90;2.83;;;;;;;1.95;92.44;96262.47;5038992;28;20289;-82
2022/03/03 05:32:47;;;;;;;3.17;2.80;;;;;;;1.83;92.58;96260.22;5026734;27;20214;-81
2022/03/03 05:35:16;;;;;;;3.00;2.20;;;;;;;1.78;92.37;96264.44;5016051;28;20213;-81
2022/03/03 05:37:45;;;;;;;3.30;2.47;;;;;;;1.72;91.82;96259.78;5021523;28;20229;-82
2022/03/03 05:40:15;;;;;;;4.07;2.47;;;;;;;1.72;92.08;96257.13;5023810;28;20237;-81
2022/03/03 05:42:48;;;;;;;4.30;2.30;;;;;;;1.76;91.68;96255.78;5012295;28;20205;-82
2022/03/03 05:45:18;;;;;;;6.73;3.10;;;;;;;1.85;89.12;96260.03;5008906;28;20210;-82
2022/03/03 05:47:46;;;;;;;6.37;3.23;;;;;;;1.88;88.45;96254.34;5013990;28;20210;-82
2022/03/03 05:50:15;;;;;;;8.37;4.97;;;;;;;1.87;88.07;96250.06;5008100;28;20217;-81
2022/03/03 05:52:43;;;;;;;5.43;3.63;;;;;;;1.97;88.02;96249.78;5010026;28;20229;-82
2022/03/03 05:55:10;;;;;;;3.73;3.23;;;;;;;2.07;86.50;96253.84;5015141;28;20203;-83
2022/03/03 05:57:42;;;;;;;12.53;3.37;;;;;;;2.12;85.66;96250.66;5017452;28;20219;-82
2022/03/03 06:00:12;;;;;;;7.60;3.73;;;;;;;2.16;85.11;96255.44;5013290;28;20218;-82
2022/03/03 06:02:53;;;;;;;11.47;4.60;;;;;;;2.12;85.99;96253.34;5027051;28;20322;-82
2022/03/03 06:05:26;;;;;;;9.43;4.10;;;;;;;2.16;84.34;96242.13;5014367;28;20209;-81
2022/03/03 06:08:06;;;;;;;8.90;5.03;;;;;;;2.20;83.90;96242.59;5011366;28;20212;-82
2022/03/03 06:10:35;;;;;;;10.10;4.57;;;;;;;2.25;83.80;96241.03;5016694;28;20203;-82
2022/03/03 06:13:12;;;;;;;11.60;5.87;;;;;;;2.31;82.74;96247.47;5015526;28;20290;-82
2022/03/03 06:15:42;;;;;;;9.00;4.93;;;;;;;2.44;81.44;96250.34;5014708;28;20213;-81
2022/03/03 06:18:14;;;;;;;8.80;4.33;;;;;;;2.41;78.55;96239.22;5018324;28;20206;-82
2022/03/03 06:20:47;;;;;;;8.10;3.67;;;;;;;2.53;78.77;96243.09;5022525;28;20548;-82
2022/03/03 06:23:18;;;;;;;6.80;3.90;;;;;;;2.53;78.83;96241.25;5010165;28;20325;-81
2022/03/03 06:25:57;;;;;;;6.10;3.70;;;;;;;2.57;78.96;96250.53;5017815;28;20208;-82
2022/03/03 06:28:24;;;;;;;8.63;3.50;;;;;;;2.48;80.22;96243.63;5015814;28;20241;-82
2022/03/03 06:30:54;;;;;;;5.70;3.70;;;;;;;2.40;81.06;96240.22;5007378;28;20215;-82
2022/03/03 06:33:21;;;;;;;8.67;3.90;;;;;;;2.29;82.44;96236.19;5012178;28;20266;-81
2022/03/03 06:35:55;;;;;;;6.87;3.83;;;;;;;2.27;82.69;96246.19;5014126;28;20350;-82
2022/03/03 06:38:23;;;;;;;5.07;3.47;;;;;;;2.20;83.24;96245.28;5007019;28;20253;-83
2022/03/03 06:40:50;;;;;;;7.53;3.47;;;;;;;2.21;82.41;96245.06;5014704;28;20219;-82
2022/03/03 06:43:17;;;;;;;5.83;3.50;;;;;;;2.21;81.97;96245.06;5047966;27;20202;-82
2022/03/03 06:45:44;;;;;;;6.60;3.30;;;;;;;2.31;80.46;96243.97;5011566;28;20225;-82
2022/03/03 06:48:13;;;;;;;4.90;3.10;;;;;;;2.35;81.09;96246.13;5016013;28;20306;-81
2022/03/03 06:50:42;;;;;;;6.00;3.40;;;;;;;2.33;80.96;96237.47;5014607;28;20211;-82
2022/03/03 06:53:10;;;;;;;4.23;2.80;;;;;;;2.40;80.42;96246.38;5010886;28;20210;-82
2022/03/03 06:55:39;;;;;;;5.90;3.20;;;;;;;2.43;79.74;96248.69;5014979;28;20211;-81
2022/03/03 06:58:12;;;;;;;5.50;3.13;;;;;;;2.42;79.56;96239.03;5011424;28;20217;-81
2022/03/03 07:00:41;;;;;;;3.63;2.50;;;;;;;2.41;80.04;96234.72;5018459;28;20241;-82
2022/03/03 07:03:08;;;;;;;9.53;3.70;;;;;;;2.42;79.50;96236.38;5031330;28;20225;-82
2022/03/03 07:05:35;;;;;;;5.63;3.70;;;;;;;2.46;79.53;96242.19;5023073;28;20262;-81
2022/03/03 07:08:02;;;;;;;8.50;4.00;;;;;;;2.39;79.97;96226.06;5042279;27;20263;-82
2022/03/03 07:10:32;;;;;;;5.43;3.80;;;;;;;2.53;77.67;96248.44;5019116;28;20206;-82
2022/03/03 07:12:59;;;;;;;7.77;4.50;;;;;;;2.50;77.28;96235.47;5027362;28;20207;-82
2022/03/03 07:15:27;;;;;;;9.87;5.47;;;;;;;2.57;77.76;96245.19;5013490;28;20226;-82
2022/03/03 07:18:09;;;;;;;7.37;4.80;;;;;;;2.64;76.16;96243.44;5013131;28;20320;-82
2022/03/03 07:20:48;;;;;;;9.43;3.40;;;;;;;2.69;75.97;96242.91;5014800;28;20239;-82
2022/03/03 07:23:27;;;;;;;9.03;3.13;;;;;;;2.69;75.73;96236.75;5033926;27;20230;-82
2022/03/03 07:26:00;;;;;;;4.43;2.63;;;;;;;2.69;76.46;96220.75;5011958;28;20290;-81
2022/03/03 07:28:29;;;;;;;6.60;3.47;;;;;;;2.78;74.91;96241.81;5017336;28;20199;-82
2022/03/03 07:30:59;;;;;;;8.43;4.23;;;;;;;2.80;75.98;96233.63;5024750;27;20210;-80
2022/03/03 07:33:41;;;;;;;5.03;3.23;;;;;;;2.81;76.66;96235.25;5022851;28;20214;-81
2022/03/03 07:36:10;;;;;;;7.10;3.47;;;;;;;2.73;77.70;96230.84;5029984;28;20233;-81
2022/03/03 07:38:56;;;;;;;6.17;3.53;;;;;;;2.72;78.49;96242.56;5017867;28;20234;-81
2022/03/03 07:41:26;;;;;;;4.30;2.40;;;;;;;2.68;78.73;96227.94;5032593;28;20285;-82
2022/03/03 07:43:54;;;;;;;10.87;5.07;;;;;;;2.67;78.89;96239.59;5016065;28;20297;-81
2022/03/03 07:46:21;;;;;;;25.03;5.73;;;;;;;2.63;79.44;96233.84;5027365;27;20209;-82
2022/03/03 07:48:51;;;;;;;12.47;4.70;;;;;;;2.73;80.47;96236.19;5021105;28;20221;-82
2022/03/03 07:51:19;;;;;;;5.70;3.50;;;;;;;2.75;79.92;96236.84;5022826;27;20210;-81
2022/03/03 07:53:46;;;;;;;6.50;3.90;;;;;;;2.70;80.37;96231.25;5030899;27;20217;-81
2022/03/03 07:56:20;;;;;;;6.40;3.50;;;;;;;2.58;80.72;96219.38;5013182;28;20206;-81
2022/03/03 07:58:51;;;;;;;11.33;4.13;;;;;;;2.58;81.85;96220.22;5016800;28;21835;-81
2022/03/03 08:01:21;;;;;;;5.53;3.67;;;;;;;2.58;81.91;96219.38;5020665;28;20245;-82
2022/03/03 08:03:48;;;;;;;7.00;3.47;;;;;;;2.60;82.38;96214.69;5022198;28;20236;-81
2022/03/03 08:06:16;;;;;;;6.33;4.23;;;;;;;2.69;81.47;96221.59;5015003;28;20210;-82
2022/03/03 08:08:45;;;;;;;13.97;4.23;;;;;;;2.70;81.83;96212.59;5015459;28;20280;-81
2022/03/03 08:11:19;;;;;;;6.80;4.53;;;;;;;2.66;81.53;96211.28;5037039;27;20583;-82
2022/03/03 08:13:50;;;;;;;7.83;4.30;;;;;;;2.69;82.02;96213.59;5044696;27;20307;-81
2022/03/03 08:16:18;;;;;;;9.90;4.53;;;;;;;2.69;82.04;96213.59;5018206;28;20203;-81
2022/03/03 08:18:47;;;;;;;11.67;5.37;;;;;;;2.72;81.98;96210.56;5018132;28;20218;-81
2022/03/03 08:21:16;;;;;;;6.83;4.20;;;;;;;2.72;83.06;96209.75;5016178;28;20205;-82
2022/03/03 08:23:44;;;;;;;6.47;3.27;;;;;;;2.71;83.56;96198.25;5026888;27;20318;-81
2022/03/03 08:26:12;;;;;;;3.20;2.73;;;;;;;2.77;83.49;96196.66;5017926;28;20229;-82
2022/03/03 08:28:40;;;;;;;6.53;4.03;;;;;;;2.79;82.85;96198.16;5020074;28;20198;-81
2022/03/03 08:31:09;;;;;;;11.13;4.93;;;;;;;2.78;82.79;96201.00;5014881;27;20203;-81
2022/03/03 08:33:42;;;;;;;6.77;4.50;;;;;;;2.76;83.77;96185.19;5020236;27;20209;-82
2022/03/03 08:36:19;;;;;;;11.20;4.60;;;;;;;2.78;83.42;96175.16;5019383;28;20209;-82
2022/03/03 08:41:48;;;;;;;9.03;3.27;;;;;;;2.90;81.27;96160.31;5028399;27;20258;-82
2022/03/03 08:44:34;;;;;;;5.20;2.87;;;;;;;3.06;80.13;96163.81;5043119;27;20338;-81
2022/03/03 08:47:06;;;;;;;4.47;2.20;;;;;;;3.30;78.88;96163.44;5020643;28;20212;-82
2022/03/03 08:49:39;;;;;;;4.53;2.73;;;;;;;3.37;78.82;96167.84;5019220;28;20205;-81
2022/03/03 08:52:12;;;;;;;4.20;2.90;;;;;;;3.44;80.98;96157.22;5021916;28;20201;-81
2022/03/03 08:54:40;;;;;;;4.10;2.77;;;;;;;3.61;80.22;96153.28;5023768;27;20215;-81
2022/03/03 08:57:07;;;;;;;3.73;2.53;;;;;;;3.69;79.04;96145.13;5035330;28;20278;-81
2022/03/03 08:59:34;;;;;;;5.33;3.10;;;;;;;3.96;77.47;96145.34;5020098;28;20214;-82
2022/03/03 09:02:05;;;;;;;5.10;2.97;;;;;;;4.22;74.54;96134.84;5019337;28;20219;-81
2022/03/03 09:04:38;;;;;;;4.40;3.00;;;;;;;4.34;74.48;96133.25;5013281;27;20214;-84
2022/03/03 09:07:09;;;;;;;4.43;3.10;;;;;;;4.59;74.76;96130.94;5014047;28;20213;-84
2022/03/03 09:12:29;;;;;;;4.83;3.10;;;;;;;5.23;64.63;96118.00;5023112;28;20239;-82
2022/03/03 09:14:56;;;;;;;5.80;2.70;;;;;;;5.45;65.18;96110.63;5017497;28;20203;-82
2022/03/03 09:17:25;;;;;;;4.90;2.50;;;;;;;5.60;64.08;96103.22;5031085;27;20210;-82
2022/03/03 09:19:55;;;;;;;7.77;3.27;;;;;;;5.82;62.18;96101.16;5015060;28;20226;-83
2022/03/03 09:22:26;;;;;;;4.47;3.17;;;;;;;6.11;61.81;96093.75;5029758;28;20251;-83
2022/03/03 09:24:56;;;;;;;3.90;2.80;;;;;;;6.44;57.87;96094.50;5015201;28;20318;-82
2022/03/03 09:27:28;;;;;;;5.10;2.97;;;;;;;6.62;53.15;96086.63;5020068;28;20203;-82
2022/03/03 09:30:00;;;;;;;5.67;2.97;;;;;;;6.80;52.59;96089.41;5014996;28;20195;-82
2022/03/03 09:32:46;;;;;;;5.20;3.00;;;;;;;7.02;50.08;96078.38;5015998;28;20207;-82
2022/03/03 09:35:38;;;;;;;3.67;2.83;;;;;;;7.22;48.61;96074.56;5009111;28;20245;-82
2022/03/03 09:38:18;;;;;;;5.33;2.87;;;;;;;7.41;46.60;96063.88;5006224;28;20230;-84
2022/03/03 09:40:48;;;;;;;4.67;2.83;;;;;;;7.65;44.95;96064.97;5008118;28;20233;-83
2022/03/03 09:43:28;;;;;;;6.87;3.20;;;;;;;7.93;43.55;96057.28;5018324;28;20226;-83
2022/03/03 09:45:55;;;;;;;5.37;3.07;;;;;;;8.08;45.60;96054.25;5024290;28;20197;-83
2022/03/03 09:48:24;;;;;;;9.23;3.63;;;;;;;8.10;47.38;96047.59;5011929;27;20225;-82
2022/03/03 09:50:51;;;;;;;4.63;3.33;;;;;;;8.14;47.20;96040.75;5026873;28;20213;-84
2022/03/03 09:53:19;;;;;;;8.03;3.80;;;;;;;8.18;47.80;96043.78;5018905;28;20199;-84
2022/03/03 09:55:48;;;;;;;5.23;3.60;;;;;;;8.25;48.44;96042.66;5012516;28;20273;-83
2022/03/03 09:58:15;;;;;;;7.80;4.13;;;;;;;8.40;47.47;96036.97;5035238;28;20210;-83
2022/03/03 10:00:44;;;;;;;6.03;3.57;;;;;;;8.60;46.75;96042.94;5011103;28;20263;-82
2022/03/03 10:03:16;;;;;;;6.30;3.73;;;;;;;8.71;46.41;96033.28;5014575;28;20234;-82
2022/03/03 10:06:03;;;;;;;;;;;;;;;;;;;;;
2022/03/03 10:08:31;;;;;;;6.53;4.00;;;;;;;8.92;44.26;96035.50;5026015;27;20313;-83
2022/03/03 10:11:00;;;;;;;6.07;3.63;;;;;;;8.97;43.73;96041.03;5015793;28;20215;-82
2022/03/03 10:13:44;;;;;;;9.40;4.17;;;;;;;9.07;42.84;96033.22;5051158;28;20574;-84
2022/03/03 10:16:11;;;;;;;7.10;4.30;;;;;;;9.23;42.31;96037.16;5018743;28;20214;-83
2022/03/03 10:18:38;;;;;;;7.53;3.90;;;;;;;9.27;41.51;96032.13;5009065;28;20214;-83
2022/03/03 10:21:08;;;;;;;10.07;4.17;;;;;;;9.36;41.32;96036.13;5009050;27;20235;-82
2022/03/03 10:23:37;;;;;;;9.83;4.27;;;;;;;9.51;41.00;96028.44;5027040;27;20234;-83
2022/03/03 10:26:08;;;;;;;6.37;4.30;;;;;;;9.66;40.58;96028.00;5029451;28;20293;-83
2022/03/03 10:28:37;;;;;;;7.13;4.53;;;;;;;9.67;39.84;96019.69;5018153;28;20214;-83
2022/03/03 10:31:06;;;;;;;9.47;4.00;;;;;;;9.78;39.58;96010.75;5034983;27;20258;-82
2022/03/03 10:33:35;;;;;;;7.77;3.97;;;;;;;9.99;39.40;96009.38;5019133;28;20198;-83
2022/03/03 10:36:13;;;;;;;8.13;4.10;;;;;;;10.18;38.82;95997.44;5022915;28;20296;-83
2022/03/03 10:38:52;;;;;;;8.27;4.80;;;;;;;10.35;39.45;95991.31;5023078;28;20303;-82
2022/03/03 10:41:38;;;;;;;8.33;4.20;;;;;;;10.58;38.69;95980.47;5058233;27;20202;-83
2022/03/03 10:44:08;;;;;;;6.33;4.30;;;;;;;10.82;40.46;95982.03;5014207;28;20245;-83
2022/03/03 10:46:38;;;;;;;7.13;4.57;;;;;;;10.94;40.50;95974.72;5010326;28;20301;-83
2022/03/03 10:49:22;;;;;;;8.87;5.73;;;;;;;11.10;40.75;95961.47;5020572;27;20228;-84
2022/03/03 10:51:51;;;;;;;9.57;4.80;;;;;;;11.26;41.88;95960.69;5011324;28;20236;-83
2022/03/03 10:54:19;;;;;;;7.53;4.93;;;;;;;11.43;41.93;95966.09;5020011;28;20206;-83
2022/03/03 10:56:50;;;;;;;8.33;4.60;;;;;;;11.64;41.87;95943.75;5017909;28;20201;-82
2022/03/03 10:59:24;;;;;;;6.83;4.67;;;;;;;11.85;41.95;95951.13;5026108;28;20202;-83
2022/03/03 11:01:52;;;;;;;10.20;5.10;;;;;;;12.06;41.21;95944.97;5033255;27;20221;-83
2022/03/03 11:04:23;;;;;;;8.43;5.07;;;;;;;12.25;42.09;95947.38;5022113;28;20203;-84
2022/03/03 11:06:54;;;;;;;8.93;5.27;;;;;;;12.54;41.79;95950.72;5012066;28;20214;-83
2022/03/03 11:09:21;;;;;;;6.40;4.90;;;;;;;12.67;40.52;95953.88;5034471;27;20218;-83
2022/03/03 11:11:49;;;;;;;8.67;5.10;;;;;;;12.80;39.08;95950.78;5014768;27;20210;-83
2022/03/03 11:14:16;;;;;;;10.17;5.20;;;;;;;12.83;39.51;95949.44;5009768;28;20217;-84
2022/03/03 11:16:43;;;;;;;9.47;5.17;;;;;;;12.82;38.25;95945.94;5018703;28;20206;-83
2022/03/03 11:19:11;;;;;;;7.13;4.90;;;;;;;12.96;36.20;95942.81;5015163;28;20225;-83
2022/03/03 11:21:39;;;;;;;8.07;4.87;;;;;;;13.10;38.46;95939.41;5012866;28;20207;-84
2022/03/03 11:24:08;;;;;;;9.23;5.23;;;;;;;13.40;38.10;95930.81;5017189;27;20243;-83
2022/03/03 11:26:44;;;;;;;12.53;5.73;;;;;;;13.50;38.82;95922.75;5031035;27;20202;-83
2022/03/03 11:29:13;;;;;;;9.73;6.23;;;;;;;13.70;37.62;95916.66;5027021;27;20210;-84
2022/03/03 11:31:42;;;;;;;8.77;5.03;;;;;;;13.75;37.48;95903.13;5008792;28;20257;-84
2022/03/03 11:34:20;;;;;;;10.23;4.87;;;;;;;13.91;37.23;95902.16;5015882;28;20226;-84
2022/03/03 11:36:48;;;;;;;8.07;4.63;;;;;;;13.81;37.40;95902.09;5021265;28;20207;-84
2022/03/03 11:39:41;;;;;;;7.33;4.40;;;;;;;13.79;38.36;95900.72;5026269;28;20214;-83
2022/03/03 11:42:36;;;;;;;7.17;4.33;;;;;;;13.56;36.96;95905.44;5012332;28;20215;-85
2022/03/03 11:45:19;;;;;;;7.47;4.60;;;;;;;13.41;36.50;95897.19;5007283;28;20202;-83
2022/03/03 11:47:48;;;;;;;6.13;4.90;;;;;;;13.41;37.26;95897.19;5020291;28;20256;-84
2022/03/03 11:50:25;;;;;;;8.97;5.20;;;;;;;13.33;37.06;95894.94;5023094;28;20234;-84
2022/03/03 11:53:14;;;;;;;6.63;4.77;;;;;;;13.49;36.24;95899.41;5014063;28;20341;-83
2022/03/03 11:55:46;;;;;;;6.43;4.93;;;;;;;13.48;35.04;95903.22;5008955;28;20215;-84
2022/03/03 11:58:16;;;;;;;7.43;4.80;;;;;;;13.43;35.42;95902.34;5010160;28;20203;-83
2022/03/03 12:00:48;;;;;;;9.70;4.87;;;;;;;13.35;34.98;95897.41;5023093;28;20275;-84
2022/03/03 12:03:17;;;;;;;7.10;4.87;;;;;;;13.45;35.12;95898.28;5023805;28;20222;-84
2022/03/03 12:05:46;;;;;;;10.37;5.17;;;;;;;13.60;35.17;95893.00;5025683;28;20214;-84